Time;durP1;ratioP1;P1;durP2;ratioP2;P2;SDS_P1;SDS_P2;PMS_P1;PMS_P2;Temp;Humidity;BMP_temperature;BMP_pressure;BME280_temperature;BME280_humidity;BME280_pressure;Samples;Min_cycle;Max_cycle;Signal;HPM_P1;HPM_P2
2022/08/13 00:09:50;;;;;;;2.67;2.42;;;;;;;;;;10061365;28;20127;-63
2022/08/13 00:14:46;;;;;;;4.07;1.95;;;;;;;;;;10055684;28;20049;-61
2022/08/13 00:19:45;;;;;;;3.70;2.33;;;;;;;;;;10058822;28;20410;-62
2022/08/13 00:24:45;;;;;;;4.85;3.10;;;;;;;;;;10059842;28;20412;-62
2022/08/13 00:29:44;;;;;;;2.20;2.00;;;;;;;;;;10048648;28;20064;-62
2022/08/13 00:34:39;;;;;;;2.22;2.00;;;;;;;;;;10057754;28;20054;-60
2022/08/13 00:39:35;;;;;;;3.08;2.20;;;;;;;;;;10060915;28;20080;-62
2022/08/13 00:44:53;;;;;;;2.33;2.13;;;;;;;;;;10061929;28;20048;-62
2022/08/13 00:49:47;;;;;;;2.10;2.00;;;;;;;;;;10060019;28;20050;-63
2022/08/13 00:54:58;;;;;;;5.97;2.38;;;;;;;;;;10060841;28;20061;-63
2022/08/13 00:59:54;;;;;;;2.40;2.20;;;;;;;;;;10064866;28;20132;-63
2022/08/13 01:04:48;;;;;;;3.30;1.90;;;;;;;;;;10054717;28;20049;-62
2022/08/13 01:09:43;;;;;;;3.53;2.17;;;;;;;;;;10063888;28;20363;-63
2022/08/13 01:14:57;;;;;;;1.95;1.85;;;;;;;;;;10058631;28;20144;-63
2022/08/13 01:19:53;;;;;;;2.17;1.98;;;;;;;;;;10059926;28;20103;-62
2022/08/13 01:24:55;;;;;;;3.20;2.53;;;;;;;;;;10047155;28;20100;-62
2022/08/13 01:29:49;;;;;;;4.05;2.42;;;;;;;;;;10058305;28;20047;-62
2022/08/13 01:34:45;;;;;;;3.58;2.90;;;;;;;;;;10061067;28;20132;-62
2022/08/13 01:39:44;;;;;;;3.92;2.80;;;;;;;;;;10062743;28;20050;-62
2022/08/13 01:44:39;;;;;;;4.68;3.20;;;;;;;;;;10062808;28;20038;-62
2022/08/13 01:55:05;;;;;;;2.80;2.60;;;;;;;;;;10034549;28;20057;-62
2022/08/13 02:00:00;;;;;;;2.63;2.42;;;;;;;;;;10050220;28;20198;-62
2022/08/13 02:04:58;;;;;;;3.20;2.90;;;;;;;;;;10033803;28;20045;-62
2022/08/13 02:09:53;;;;;;;3.15;2.85;;;;;;;;;;10033495;28;20053;-62
2022/08/13 02:14:56;;;;;;;3.40;3.10;;;;;;;;;;10049807;28;20389;-63
2022/08/13 02:19:49;;;;;;;7.18;4.93;;;;;;;;;;10067611;28;20095;-65
2022/08/13 02:24:53;;;;;;;6.68;5.03;;;;;;;;;;10071163;28;20054;-64
2022/08/13 02:29:49;;;;;;;5.38;3.85;;;;;;;;;;10064355;28;20124;-64
2022/08/13 02:34:46;;;;;;;5.25;4.43;;;;;;;;;;10065156;28;20049;-64
2022/08/13 02:39:40;;;;;;;7.13;6.53;;;;;;;;;;10070996;28;20057;-64
2022/08/13 02:44:35;;;;;;;7.90;7.10;;;;;;;;;;10054605;28;20075;-64
2022/08/13 02:49:31;;;;;;;7.95;7.25;;;;;;;;;;10039896;28;20049;-64
2022/08/13 02:54:44;;;;;;;9.30;7.10;;;;;;;;;;10053834;28;20140;-63
2022/08/13 02:59:50;;;;;;;7.68;6.47;;;;;;;;;;10033184;28;20078;-63
2022/08/13 03:05:01;;;;;;;8.10;6.90;;;;;;;;;;10054710;28;20466;-64
2022/08/13 03:09:58;;;;;;;9.93;8.23;;;;;;;;;;10049053;28;20081;-64
2022/08/13 03:14:53;;;;;;;9.77;8.43;;;;;;;;;;10048271;28;20038;-64
2022/08/13 03:19:48;;;;;;;10.18;8.23;;;;;;;;;;10057682;28;20396;-64
2022/08/13 03:24:43;;;;;;;8.43;7.63;;;;;;;;;;10065611;28;20061;-64
2022/08/13 03:29:39;;;;;;;12.45;9.05;;;;;;;;;;10050793;28;20046;-64
2022/08/13 03:34:53;;;;;;;10.70;8.18;;;;;;;;;;10035618;28;20042;-64
2022/08/13 03:39:47;;;;;;;9.75;8.77;;;;;;;;;;10030523;28;20528;-64
2022/08/13 03:44:41;;;;;;;9.52;8.73;;;;;;;;;;10055355;28;20496;-64
2022/08/13 03:49:36;;;;;;;10.75;9.63;;;;;;;;;;10035865;28;20080;-64
2022/08/13 03:54:30;;;;;;;9.65;8.82;;;;;;;;;;10052350;28;20053;-64
2022/08/13 03:59:24;;;;;;;10.50;9.50;;;;;;;;;;10055946;28;20466;-64
2022/08/13 04:04:21;;;;;;;11.65;10.35;;;;;;;;;;10045908;28;20389;-64
2022/08/13 04:09:15;;;;;;;13.15;10.70;;;;;;;;;;10067261;28;20059;-63
2022/08/13 04:14:09;;;;;;;14.00;10.50;;;;;;;;;;10028604;28;20069;-63
2022/08/13 04:19:26;;;;;;;14.60;10.40;;;;;;;;;;10044610;28;20046;-64
2022/08/13 04:24:20;;;;;;;12.77;11.57;;;;;;;;;;10055570;28;20050;-64
2022/08/13 04:29:19;;;;;;;11.52;10.43;;;;;;;;;;10043227;28;20049;-64
2022/08/13 04:34:13;;;;;;;11.88;10.85;;;;;;;;;;10043693;28;20503;-63
2022/08/13 04:39:27;;;;;;;10.88;9.88;;;;;;;;;;10062202;28;20053;-63
2022/08/13 04:44:41;;;;;;;10.93;9.88;;;;;;;;;;10056871;28;20333;-64
2022/08/13 04:49:38;;;;;;;10.10;9.20;;;;;;;;;;10028868;28;20065;-64
2022/08/13 04:54:36;;;;;;;16.25;10.07;;;;;;;;;;10027959;28;20456;-64
2022/08/13 04:59:32;;;;;;;9.65;8.75;;;;;;;;;;10030924;28;20092;-64
2022/08/13 05:04:29;;;;;;;10.02;7.47;;;;;;;;;;10027926;28;20591;-64
2022/08/13 05:09:26;;;;;;;6.97;6.38;;;;;;;;;;10038097;28;20064;-64
2022/08/13 05:14:24;;;;;;;8.32;6.03;;;;;;;;;;10034084;28;20073;-64
2022/08/13 05:19:25;;;;;;;11.48;6.40;;;;;;;;;;10045294;28;20072;-64
2022/08/13 05:24:20;;;;;;;6.78;4.57;;;;;;;;;;10041264;28;20112;-64
2022/08/13 05:29:34;;;;;;;6.93;4.65;;;;;;;;;;10056021;28;20567;-64
2022/08/13 05:34:30;;;;;;;6.40;5.30;;;;;;;;;;10072816;28;20111;-63
2022/08/13 05:39:24;;;;;;;5.28;4.68;;;;;;;;;;10057150;28;20123;-64
2022/08/13 05:44:21;;;;;;;4.78;4.28;;;;;;;;;;10043525;28;20480;-64
2022/08/13 05:49:16;;;;;;;6.30;3.58;;;;;;;;;;10053418;28;20377;-64
2022/08/13 05:54:13;;;;;;;3.20;2.90;;;;;;;;;;10058568;28;20052;-64
2022/08/13 06:04:43;;;;;;;3.75;2.35;;;;;;;;;;10041628;28;20058;-66
2022/08/13 06:09:40;;;;;;;4.07;2.20;;;;;;;;;;10040306;28;20068;-65
2022/08/13 06:14:34;;;;;;;2.17;1.98;;;;;;;;;;10033339;28;20129;-67
2022/08/13 06:19:32;;;;;;;2.08;1.92;;;;;;;;;;10049588;28;20060;-65
2022/08/13 06:24:27;;;;;;;4.68;2.00;;;;;;;;;;10055309;28;20057;-66
2022/08/13 06:29:21;;;;;;;2.20;2.10;;;;;;;;;;10070910;28;20049;-65
2022/08/13 06:34:22;;;;;;;2.38;1.83;;;;;;;;;;10070143;28;20041;-65
2022/08/13 06:39:29;;;;;;;2.22;1.98;;;;;;;;;;10063510;28;20049;-65
2022/08/13 06:44:24;;;;;;;2.28;1.60;;;;;;;;;;10054626;28;20115;-66
2022/08/13 06:49:21;;;;;;;2.42;1.95;;;;;;;;;;10053157;28;20073;-65
2022/08/13 06:54:24;;;;;;;1.85;1.75;;;;;;;;;;10063949;28;20416;-65
2022/08/13 06:59:26;;;;;;;2.33;2.13;;;;;;;;;;10052580;28;20057;-65
2022/08/13 07:04:47;;;;;;;4.40;2.28;;;;;;;;;;10029004;28;20049;-65
2022/08/13 07:09:47;;;;;;;2.83;1.90;;;;;;;;;;10055574;28;20069;-65
2022/08/13 07:14:43;;;;;;;2.33;1.80;;;;;;;;;;10038919;28;20584;-65
2022/08/13 07:19:43;;;;;;;3.85;1.80;;;;;;;;;;10049508;28;20123;-65
2022/08/13 07:24:57;;;;;;;2.30;2.00;;;;;;;;;;10058424;28;20050;-65
2022/08/13 07:29:54;;;;;;;3.42;2.00;;;;;;;;;;10055750;28;20049;-65
2022/08/13 07:34:49;;;;;;;5.18;2.33;;;;;;;;;;10058443;28;20052;-65
2022/08/13 07:39:44;;;;;;;3.20;1.80;;;;;;;;;;10050478;28;20041;-64
2022/08/13 07:44:42;;;;;;;3.72;2.28;;;;;;;;;;10038230;28;20095;-65
2022/08/13 07:49:58;;;;;;;1.73;1.63;;;;;;;;;;10063242;28;20404;-67
2022/08/13 07:54:55;;;;;;;2.47;2.28;;;;;;;;;;10048408;28;20041;-70
2022/08/13 07:59:49;;;;;;;2.75;2.05;;;;;;;;;;10065816;28;20049;-69
2022/08/13 08:05:10;;;;;;;1.90;1.70;;;;;;;;;;10063116;28;20053;-71
2022/08/13 08:10:08;;;;;;;2.55;2.10;;;;;;;;;;10054993;28;20077;-70
2022/08/13 08:15:07;;;;;;;2.15;1.90;;;;;;;;;;10052462;28;20056;-70
2022/08/13 08:20:02;;;;;;;1.65;1.55;;;;;;;;;;10053364;28;20420;-69
2022/08/13 08:25:17;;;;;;;2.80;1.52;;;;;;;;;;10051384;28;20054;-69
2022/08/13 08:30:17;;;;;;;1.98;1.45;;;;;;;;;;10052065;28;20053;-70
2022/08/13 08:35:12;;;;;;;6.20;3.57;;;;;;;;;;10047298;28;20052;-67
2022/08/13 08:45:42;;;;;;;5.45;2.05;;;;;;;;;;10050688;28;20140;-70
2022/08/13 08:50:57;;;;;;;2.95;1.48;;;;;;;;;;10055265;28;20060;-69
2022/08/13 08:55:51;;;;;;;3.92;1.30;;;;;;;;;;10066799;28;20416;-67
2022/08/13 09:00:48;;;;;;;1.33;1.23;;;;;;;;;;10061082;28;20107;-67
2022/08/13 09:05:41;;;;;;;1.10;1.02;;;;;;;;;;10064885;28;20111;-67
2022/08/13 09:10:37;;;;;;;2.92;1.00;;;;;;;;;;10078848;28;20063;-69
2022/08/13 09:15:39;;;;;;;;;;;;;;;;;;10105668;28;20060;-68
2022/08/13 09:20:33;;;;;;;1.20;1.10;;;;;;;;;;10106214;28;19931;-67
2022/08/13 09:25:33;;;;;;;0.93;0.93;;;;;;;;;;10102641;28;20057;-68
2022/08/13 09:30:45;;;;;;;1.70;1.10;;;;;;;;;;10098436;28;20083;-67
2022/08/13 09:35:44;;;;;;;1.38;1.02;;;;;;;;;;10096149;28;20056;-68
2022/08/13 09:40:48;;;;;;;1.25;0.80;;;;;;;;;;10105963;28;20049;-67
2022/08/13 09:45:51;;;;;;;1.17;0.93;;;;;;;;;;10104528;28;20053;-67
2022/08/13 09:50:44;;;;;;;1.63;1.00;;;;;;;;;;10096870;28;20041;-67
2022/08/13 09:55:48;;;;;;;1.75;1.20;;;;;;;;;;10104644;28;20110;-67
2022/08/13 10:00:46;;;;;;;1.88;1.00;;;;;;;;;;10103737;28;20152;-67
2022/08/13 10:05:41;;;;;;;3.47;1.00;;;;;;;;;;10096522;28;20216;-67
2022/08/13 10:10:47;;;;;;;2.83;1.00;;;;;;;;;;10074187;28;20527;-67
2022/08/13 10:15:41;;;;;;;3.42;1.08;;;;;;;;;;10058956;28;20131;-67
2022/08/13 10:20:41;;;;;;;4.10;1.10;;;;;;;;;;10061453;28;20088;-67
2022/08/13 10:25:37;;;;;;;6.55;1.17;;;;;;;;;;10064647;28;20073;-67
2022/08/13 10:30:46;;;;;;;1.85;1.20;;;;;;;;;;10069662;28;20136;-67
2022/08/13 10:35:59;;;;;;;0.85;0.85;;;;;;;;;;10061573;28;20046;-68
2022/08/13 10:41:00;;;;;;;0.70;0.70;;;;;;;;;;10050685;28;20077;-68
2022/08/13 10:45:59;;;;;;;1.23;1.00;;;;;;;;;;10059003;28;20049;-67
2022/08/13 10:51:04;;;;;;;4.00;0.98;;;;;;;;;;10051684;28;20161;-68
2022/08/13 10:55:59;;;;;;;0.98;0.80;;;;;;;;;;10065288;28;20399;-68
2022/08/13 11:01:02;;;;;;;3.08;1.00;;;;;;;;;;10057411;28;20050;-68
2022/08/13 11:06:03;;;;;;;2.08;0.85;;;;;;;;;;10065871;28;20563;-68
2022/08/13 11:10:56;;;;;;;1.58;1.02;;;;;;;;;;10060061;28;20053;-67
2022/08/13 11:16:56;;;;;;;0.80;0.70;;;;;;;;;;10063908;28;20052;-68
2022/08/13 11:21:27;;;;;;;1.83;0.90;;;;;;;;;;10038322;28;20061;-69
2022/08/13 11:26:42;;;;;;;2.47;1.30;;;;;;;;;;10048476;28;20046;-69
2022/08/13 11:31:38;;;;;;;4.78;1.10;;;;;;;;;;10043982;28;20064;-72
2022/08/13 11:36:52;;;;;;;0.90;0.77;;;;;;;;;;10049628;28;20053;-63
2022/08/13 11:41:46;;;;;;;0.90;0.80;;;;;;;;;;10049193;28;20104;-65
2022/08/13 11:46:49;;;;;;;0.77;0.77;;;;;;;;;;10055720;28;20072;-66
2022/08/13 11:51:45;;;;;;;1.85;0.70;;;;;;;;;;10064320;28;20519;-67
2022/08/13 11:56:43;;;;;;;3.35;1.00;;;;;;;;;;10067871;28;20195;-67
2022/08/13 12:01:43;;;;;;;4.57;0.95;;;;;;;;;;10049889;28;20072;-67
2022/08/13 12:06:42;;;;;;;1.98;0.90;;;;;;;;;;10067558;28;20128;-68
2022/08/13 12:11:42;;;;;;;1.20;0.80;;;;;;;;;;10096004;28;20467;-67
2022/08/13 12:16:56;;;;;;;1.20;0.73;;;;;;;;;;10107477;28;20055;-65
2022/08/13 12:21:50;;;;;;;3.93;0.90;;;;;;;;;;10098808;28;20541;-64
2022/08/13 12:26:45;;;;;;;3.05;1.15;;;;;;;;;;10085916;28;20047;-62
2022/08/13 12:31:48;;;;;;;1.25;0.93;;;;;;;;;;10093891;28;20079;-66
2022/08/13 12:36:43;;;;;;;5.57;0.80;;;;;;;;;;10094438;28;20055;-63
2022/08/13 12:41:37;;;;;;;2.15;0.82;;;;;;;;;;10091623;28;20144;-65
2022/08/13 12:46:38;;;;;;;0.75;0.75;;;;;;;;;;10104073;28;20083;-62
2022/08/13 12:51:38;;;;;;;1.45;1.00;;;;;;;;;;10096766;28;20407;-62
2022/08/13 12:56:48;;;;;;;2.53;1.00;;;;;;;;;;10087001;28;20076;-62
2022/08/13 13:01:52;;;;;;;1.58;1.08;;;;;;;;;;10095965;28;20151;-63
2022/08/13 13:06:46;;;;;;;2.78;0.90;;;;;;;;;;10033781;28;20496;-61
2022/08/13 13:11:41;;;;;;;1.48;1.10;;;;;;;;;;10076234;28;20057;-61
2022/08/13 13:16:46;;;;;;;1.27;0.80;;;;;;;;;;10100461;28;20053;-61
2022/08/13 13:21:50;;;;;;;1.75;0.88;;;;;;;;;;10096854;28;20059;-61
2022/08/13 13:26:45;;;;;;;1.15;1.02;;;;;;;;;;10102985;28;20450;-59
2022/08/13 13:31:50;;;;;;;2.72;1.20;;;;;;;;;;10100714;28;20399;-61
2022/08/13 13:37:04;;;;;;;1.42;1.02;;;;;;;;;;10102182;28;20055;-61
2022/08/13 13:42:00;;;;;;;2.63;0.80;;;;;;;;;;10100109;28;20045;-61
2022/08/13 13:46:54;;;;;;;1.05;0.77;;;;;;;;;;10089738;28;20052;-61
2022/08/13 13:51:51;;;;;;;3.90;0.95;;;;;;;;;;10110562;28;20419;-61
2022/08/13 13:56:44;;;;;;;2.95;1.20;;;;;;;;;;10102953;28;20069;-61
2022/08/13 14:01:38;;;;;;;1.75;0.80;;;;;;;;;;10104939;28;20132;-61
2022/08/13 14:06:44;;;;;;;1.58;0.95;;;;;;;;;;10105461;28;20041;-61
2022/08/13 14:11:38;;;;;;;1.08;0.85;;;;;;;;;;10104510;28;20512;-61
2022/08/13 14:16:44;;;;;;;0.85;0.82;;;;;;;;;;10101119;28;20049;-61
2022/08/13 14:21:39;;;;;;;2.30;1.17;;;;;;;;;;10104102;28;20063;-61
2022/08/13 14:26:34;;;;;;;1.85;0.93;;;;;;;;;;10099519;28;20045;-61
2022/08/13 14:31:29;;;;;;;1.03;1.00;;;;;;;;;;10100793;28;20045;-60
2022/08/13 14:36:40;;;;;;;1.35;1.20;;;;;;;;;;10104555;28;20041;-65
2022/08/13 14:41:54;;;;;;;3.25;1.10;;;;;;;;;;10092162;28;20045;-62
2022/08/13 14:46:48;;;;;;;1.48;0.93;;;;;;;;;;10100913;28;20049;-62
2022/08/13 14:51:43;;;;;;;3.80;0.88;;;;;;;;;;10108173;28;20495;-63
2022/08/13 14:56:57;;;;;;;1.10;1.00;;;;;;;;;;10099165;28;20044;-67
2022/08/13 15:02:15;;;;;;;4.45;1.00;;;;;;;;;;10096931;28;20040;-64
2022/08/13 15:07:09;;;;;;;0.93;0.90;;;;;;;;;;10098662;28;20044;-61
2022/08/13 15:12:04;;;;;;;1.10;1.00;;;;;;;;;;10096229;28;20056;-60
2022/08/13 15:17:05;;;;;;;3.90;1.35;;;;;;;;;;10101087;28;20057;-62
2022/08/13 15:21:59;;;;;;;1.33;1.00;;;;;;;;;;10099019;28;20090;-60
2022/08/13 15:26:53;;;;;;;3.83;0.93;;;;;;;;;;10107197;28;20072;-60
2022/08/13 15:31:50;;;;;;;2.08;1.38;;;;;;;;;;10098335;28;20136;-60
2022/08/13 15:36:47;;;;;;;3.10;0.85;;;;;;;;;;10100661;28;20106;-60
2022/08/13 15:42:04;;;;;;;1.52;1.02;;;;;;;;;;10102251;28;20411;-60
2022/08/13 15:47:00;;;;;;;1.00;0.90;;;;;;;;;;10106752;28;20056;-60
2022/08/13 15:51:53;;;;;;;3.30;1.33;;;;;;;;;;10101618;28;20064;-59
2022/08/13 15:56:50;;;;;;;2.40;1.00;;;;;;;;;;10100997;28;20506;-60
2022/08/13 16:02:03;;;;;;;1.58;1.10;;;;;;;;;;10100962;28;20053;-60
2022/08/13 16:07:18;;;;;;;1.45;1.20;;;;;;;;;;10100742;28;20055;-59
2022/08/13 16:12:17;;;;;;;1.27;1.13;;;;;;;;;;10104862;28;20481;-61
2022/08/13 16:17:25;;;;;;;1.10;1.00;;;;;;;;;;10094967;28;20057;-60
2022/08/13 16:22:19;;;;;;;1.48;1.17;;;;;;;;;;10105212;28;20080;-60
2022/08/13 16:27:21;;;;;;;3.10;0.93;;;;;;;;;;10105703;28;20128;-59
2022/08/13 16:32:23;;;;;;;4.30;1.38;;;;;;;;;;10102062;28;20045;-60
2022/08/13 16:37:22;;;;;;;4.38;1.30;;;;;;;;;;10099708;28;20049;-59
2022/08/13 16:42:17;;;;;;;3.75;1.20;;;;;;;;;;10096227;28;20029;-58
2022/08/13 16:47:12;;;;;;;3.10;1.00;;;;;;;;;;10101970;28;20075;-61
2022/08/13 16:52:07;;;;;;;3.63;1.17;;;;;;;;;;10098866;28;20052;-62
2022/08/13 16:57:03;;;;;;;1.23;1.10;;;;;;;;;;10105276;28;20492;-61
2022/08/13 17:01:59;;;;;;;1.23;1.13;;;;;;;;;;10104666;28;20091;-62
2022/08/13 17:12:10;;;;;;;1.27;1.20;;;;;;;;;;10096050;28;20084;-63
2022/08/13 17:17:06;;;;;;;3.80;1.73;;;;;;;;;;10098387;28;20055;-63
2022/08/13 17:22:09;;;;;;;1.73;1.20;;;;;;;;;;10104701;28;20052;-59
2022/08/13 17:27:04;;;;;;;2.15;1.20;;;;;;;;;;10105284;28;20053;-59
2022/08/13 17:32:00;;;;;;;1.90;1.57;;;;;;;;;;10098774;28;20059;-59
2022/08/13 17:36:55;;;;;;;2.35;1.48;;;;;;;;;;10104780;28;20118;-61
2022/08/13 17:42:10;;;;;;;3.35;1.58;;;;;;;;;;10105283;28;20049;-60
2022/08/13 17:47:24;;;;;;;2.97;1.60;;;;;;;;;;10087050;28;20051;-59
2022/08/13 17:52:38;;;;;;;1.38;1.27;;;;;;;;;;10101497;28;20045;-60
2022/08/13 17:57:33;;;;;;;6.88;1.35;;;;;;;;;;10096175;28;20068;-59
2022/08/13 18:02:39;;;;;;;1.90;1.60;;;;;;;;;;10091773;28;20127;-60
2022/08/13 18:07:34;;;;;;;7.68;1.77;;;;;;;;;;10078422;28;20114;-60
2022/08/13 18:12:42;;;;;;;2.00;1.42;;;;;;;;;;10097755;28;20456;-58
2022/08/13 18:17:41;;;;;;;2.88;1.85;;;;;;;;;;10095876;28;20053;-64
2022/08/13 18:22:55;;;;;;;2.28;1.50;;;;;;;;;;10090770;28;20045;-60
2022/08/13 18:27:51;;;;;;;1.58;1.48;;;;;;;;;;10091174;28;20053;-59
2022/08/13 18:33:08;;;;;;;1.02;1.02;;;;;;;;;;10098351;28;20051;-59
2022/08/13 18:38:22;;;;;;;4.45;1.73;;;;;;;;;;10099872;28;20140;-59
2022/08/13 18:43:27;;;;;;;1.63;1.30;;;;;;;;;;10107478;28;20444;-60
2022/08/13 18:48:26;;;;;;;2.85;1.45;;;;;;;;;;10107199;28;20065;-59
2022/08/13 18:53:27;;;;;;;2.17;1.98;;;;;;;;;;10105371;28;20048;-59
2022/08/13 18:58:36;;;;;;;4.07;2.08;;;;;;;;;;10099553;28;20495;-59
2022/08/13 19:03:30;;;;;;;2.25;1.80;;;;;;;;;;10105785;28;20053;-62
2022/08/13 19:08:44;;;;;;;2.92;2.05;;;;;;;;;;10104549;28;20057;-61
2022/08/13 19:13:45;;;;;;;2.22;2.00;;;;;;;;;;10104529;28;20490;-62
2022/08/13 19:18:39;;;;;;;6.50;1.70;;;;;;;;;;10105014;28;20053;-62
2022/08/13 19:23:33;;;;;;;2.10;1.80;;;;;;;;;;10098880;28;20044;-60
2022/08/13 19:28:30;;;;;;;1.70;1.50;;;;;;;;;;10103124;28;20140;-58
2022/08/13 19:33:45;;;;;;;3.28;1.88;;;;;;;;;;10107330;28;20048;-60
2022/08/13 19:38:42;;;;;;;3.97;1.75;;;;;;;;;;10107836;28;20090;-61
2022/08/13 19:43:54;;;;;;;3.55;1.52;;;;;;;;;;10107946;28;20079;-61
2022/08/13 19:48:52;;;;;;;4.07;2.50;;;;;;;;;;10107582;28;20049;-61
2022/08/13 19:53:47;;;;;;;2.65;2.05;;;;;;;;;;10095220;28;20087;-63
2022/08/13 19:58:44;;;;;;;4.83;2.23;;;;;;;;;;10094503;28;20107;-61
2022/08/13 20:03:38;;;;;;;6.05;2.92;;;;;;;;;;10103739;28;20048;-65
2022/08/13 20:08:48;;;;;;;4.93;2.65;;;;;;;;;;10104831;28;20084;-67
2022/08/13 20:13:43;;;;;;;6.85;2.42;;;;;;;;;;10102848;28;20067;-64
2022/08/13 20:18:40;;;;;;;3.03;2.75;;;;;;;;;;10101143;28;20381;-69
2022/08/13 20:23:39;;;;;;;5.28;3.13;;;;;;;;;;10101384;28;20126;-68
2022/08/13 20:28:34;;;;;;;8.20;2.50;;;;;;;;;;10100916;28;20067;-62
2022/08/13 20:33:32;;;;;;;7.10;2.47;;;;;;;;;;10102432;28;20079;-72
2022/08/13 20:38:30;;;;;;;5.07;2.30;;;;;;;;;;10092371;28;20045;-70
2022/08/13 20:43:29;;;;;;;2.58;2.38;;;;;;;;;;10095348;28;20090;-71
2022/08/13 20:48:43;;;;;;;6.60;2.05;;;;;;;;;;10090880;28;20047;-66
2022/08/13 20:53:45;;;;;;;3.58;2.25;;;;;;;;;;10097059;28;20089;-64
2022/08/13 20:58:42;;;;;;;6.87;2.53;;;;;;;;;;10092437;28;20075;-67
2022/08/13 21:03:55;;;;;;;2.55;2.35;;;;;;;;;;10097554;28;20041;-68
2022/08/13 21:08:50;;;;;;;2.85;2.08;;;;;;;;;;10095732;28;20060;-67
2022/08/13 21:13:45;;;;;;;6.22;3.10;;;;;;;;;;10100711;28;20132;-69
2022/08/13 21:18:39;;;;;;;9.20;3.92;;;;;;;;;;10099806;28;20420;-67
2022/08/13 21:23:37;;;;;;;7.25;3.35;;;;;;;;;;10098736;28;20135;-67
2022/08/13 21:28:31;;;;;;;3.45;2.15;;;;;;;;;;10098495;28;20076;-72
2022/08/13 21:33:45;;;;;;;11.82;2.83;;;;;;;;;;10093278;28;20045;-68
2022/08/13 21:38:41;;;;;;;5.38;2.53;;;;;;;;;;10098748;28;20053;-72
2022/08/13 21:43:35;;;;;;;4.70;2.47;;;;;;;;;;10095259;28;20053;-71
2022/08/13 21:48:43;;;;;;;4.88;2.53;;;;;;;;;;10095698;28;20075;-70
2022/08/13 21:53:50;;;;;;;3.00;2.35;;;;;;;;;;10086504;28;20056;-68
2022/08/13 21:58:45;;;;;;;3.80;2.50;;;;;;;;;;10098496;28;20049;-68
2022/08/13 22:03:49;;;;;;;3.80;3.03;;;;;;;;;;10074562;28;20129;-68
2022/08/13 22:08:57;;;;;;;3.28;2.25;;;;;;;;;;10096392;28;20311;-69
2022/08/13 22:13:50;;;;;;;4.03;2.30;;;;;;;;;;10096572;28;20045;-68
2022/08/13 22:18:46;;;;;;;5.93;2.35;;;;;;;;;;10099612;28;20124;-68
2022/08/13 22:23:40;;;;;;;2.30;2.10;;;;;;;;;;10105122;28;20049;-68
2022/08/13 22:33:47;;;;;;;5.38;2.25;;;;;;;;;;10106890;28;20064;-69
2022/08/13 22:38:54;;;;;;;2.30;1.90;;;;;;;;;;10104812;28;20048;-67
2022/08/13 22:43:48;;;;;;;3.63;2.10;;;;;;;;;;10103162;28;20056;-66
2022/08/13 22:48:45;;;;;;;2.38;2.17;;;;;;;;;;10102933;28;20060;-65
2022/08/13 22:53:42;;;;;;;;;;;;;;;;;;10095260;28;20041;-65
2022/08/13 22:58:36;;;;;;;1.98;1.83;;;;;;;;;;10097248;28;19921;-65
2022/08/13 23:03:33;;;;;;;5.07;2.35;;;;;;;;;;10097364;28;20057;-65
2022/08/13 23:08:27;;;;;;;3.10;2.70;;;;;;;;;;10108689;28;20484;-64
2022/08/13 23:13:24;;;;;;;4.95;2.38;;;;;;;;;;10091956;28;20053;-64
2022/08/13 23:18:19;;;;;;;3.20;2.90;;;;;;;;;;10107323;28;20056;-64
2022/08/13 23:23:18;;;;;;;3.20;2.65;;;;;;;;;;10102943;28;20454;-65
2022/08/13 23:28:13;;;;;;;2.55;2.35;;;;;;;;;;10105404;28;20045;-65
2022/08/13 23:33:13;;;;;;;4.97;3.15;;;;;;;;;;10098295;28;20098;-65
2022/08/13 23:38:07;;;;;;;4.22;3.10;;;;;;;;;;10100618;28;20147;-66
2022/08/13 23:43:13;;;;;;;4.40;3.67;;;;;;;;;;10108006;28;20071;-65
2022/08/13 23:48:07;;;;;;;3.97;3.58;;;;;;;;;;10106815;28;20049;-66
2022/08/13 23:53:01;;;;;;;3.72;3.42;;;;;;;;;;10104461;28;20049;-65
2022/08/13 23:57:56;;;;;;;3.72;3.28;;;;;;;;;;10098265;28;20415;-65
